• Join FlightAware (Why Join?)
  • Login
  • US Flag 
06:42AM EDT


 

Airport Tracker/Info


-or-


 

Live Flight TrackerFlight Track Log ✈ ASQ4209 ✈ 16-May-2013 ✈ KCLL - KIAH

Flight Track Log - Related Links

Times and Time Zones

All times are in EDT time to prevent confusion due to time zone crossing. See the ASQ4209 flight status page for this flight to view local times or setup timezone preferences in your user account.

Time Position Orientation Groundspeed Altitude Reporting Facility
EDT Latitude Longitude Course Direction KTS MPH feet Rate Location/Type
07:45PM 30.5731 -96.3583 145° Southeast 153 176 1,000  Level Houston Center
07:46PM 30.5281 -96.3219 145° Southeast 226 260 3,800 2,400 Climbing Houston Center
07:47PM 30.5167 -96.2550 101° East 268 308 5,600 1,680 Climbing Houston Center
07:48PM 30.5022 -96.1639 100° East 286 329 6,900 660 Climbing Houston Center
07:49PM 30.4872 -96.0703 101° East 292 336 7,000 60 Climbing Houston Center
07:50PM 30.4681 -95.9606 101° East 290 334 7,100  Climbing Houston Center
07:51PM 30.4419 -95.8853 112° Southeast 290 334 7,100 -60 Level Houston Center
07:52PM 30.3711 -95.9044 193° South 267 307 7,000 -60 Descending Houston Center
07:53PM 30.3025 -95.9336 200° South 265 305 7,000  Level Houston Center
07:54PM 30.2217 -95.9361 182° South 269 310 7,000 -420 Level Houston Center
07:55PM 30.1531 -95.8639 138° Southeast 284 327 6,200 -960 Descending Houston Center
07:56PM 30.1036 -95.8078 136° Southeast 280 322 5,100 -900 Descending Houston Center
07:57PM 30.0581 -95.7567 136° Southeast 234 269 4,500 -600 Descending Houston Center
07:58PM 30.0136 -95.7089 137° Southeast 194 223 4,000 -540 Descending Houston Center
07:59PM 29.9997 -95.6564 107° East 197 227 3,400 -480 Descending Houston Center
08:00PM 29.9925 -95.5936 98° East 201 231 3,000 -360 Descending Houston Center
08:01PM 29.9931 -95.5150 90° East 202 232 2,700 -660 Descending Houston Center
08:02PM 29.9942 -95.4522 89° East 201 231 1,700 -900 Descending Houston Center
08:03PM 29.9931 -95.4122 92° East 135 155 1,000 -540 Descending Houston Center
08:04PM 29.9956 -95.3608 87° East 146 168 600 -360 Descending Houston Center